createdAt,value
2022-11-13T00:01:11.939Z,101220.66
2022-11-13T00:03:38.796Z,101226.38
2022-11-13T00:06:05.985Z,101226.00
2022-11-13T00:08:32.772Z,101216.63
2022-11-13T00:11:08.820Z,101207.31
2022-11-13T00:13:35.679Z,101213.03
2022-11-13T00:16:04.856Z,101214.06
2022-11-13T00:18:34.272Z,101218.75
2022-11-13T00:21:30.192Z,101216.34
2022-11-13T00:23:56.702Z,101215.72
2022-11-13T00:26:29.370Z,101222.06
2022-11-13T00:28:58.750Z,101218.00
2022-11-13T00:31:26.240Z,101211.09
2022-11-13T00:36:39.647Z,101217.25
2022-11-13T00:39:06.113Z,101206.84
2022-11-13T00:41:32.829Z,101215.63
2022-11-13T00:43:59.335Z,101221.72
2022-11-13T00:46:25.872Z,101216.00
2022-11-13T00:48:52.373Z,101215.41
2022-11-13T00:51:19.812Z,101211.13
2022-11-13T00:53:46.590Z,101200.97
2022-11-13T00:56:13.204Z,101199.78
2022-11-13T00:58:40.033Z,101198.59
2022-11-13T01:01:10.260Z,101194.97
2022-11-13T01:03:39.091Z,101183.13
2022-11-13T01:06:18.184Z,101190.69
2022-11-13T01:08:45.152Z,101194.22
2022-11-13T01:11:14.398Z,101192.19
2022-11-13T01:13:42.752Z,101187.13
2022-11-13T01:16:10.812Z,101189.38
2022-11-13T01:18:37.440Z,101181.66
2022-11-13T01:21:09.798Z,101184.16
2022-11-13T01:23:36.947Z,101187.81
2022-11-13T01:26:08.825Z,101177.63
2022-11-13T01:28:35.780Z,101181.53
2022-11-13T01:31:06.342Z,101182.19
2022-11-13T01:33:33.511Z,101177.31
2022-11-13T01:36:02.027Z,101178.34
2022-11-13T01:38:31.886Z,101178.75
2022-11-13T01:41:01.401Z,101173.31
2022-11-13T01:43:31.740Z,101175.19
2022-11-13T01:45:58.161Z,101179.03
2022-11-13T01:48:32.248Z,101177.84
2022-11-13T01:50:58.832Z,101181.94
2022-11-13T01:53:26.718Z,101183.38
2022-11-13T01:55:53.660Z,101175.06
2022-11-13T01:58:20.790Z,101176.28
2022-11-13T02:00:47.473Z,101174.88
2022-11-13T02:03:13.984Z,101163.09
2022-11-13T02:05:40.547Z,101168.00
2022-11-13T02:08:07.074Z,101159.66
2022-11-13T02:10:33.595Z,101158.47
2022-11-13T02:13:00.407Z,101161.53
2022-11-13T02:15:28.994Z,101159.91
2022-11-13T02:17:58.339Z,101159.50
2022-11-13T02:20:35.365Z,101155.44
2022-11-13T02:23:06.806Z,101151.00
2022-11-13T02:25:34.752Z,101153.84
2022-11-13T02:28:01.766Z,101146.13
2022-11-13T02:30:31.408Z,101141.66
2022-11-13T02:32:59.236Z,101146.75
2022-11-13T02:35:31.025Z,101139.00
2022-11-13T02:37:59.968Z,101138.97
2022-11-13T02:40:27.240Z,101141.78
2022-11-13T02:42:53.750Z,101139.16
2022-11-13T02:45:20.588Z,101136.91
2022-11-13T02:47:47.222Z,101127.94
2022-11-13T02:50:13.918Z,101138.69
2022-11-13T02:52:40.650Z,101131.34
2022-11-13T02:55:07.741Z,101128.06
2022-11-13T02:57:34.201Z,101137.44
2022-11-13T03:00:00.858Z,101139.25
2022-11-13T03:02:27.345Z,101147.41
2022-11-13T03:07:41.098Z,101137.06
2022-11-13T03:10:08.621Z,101140.13
2022-11-13T03:12:35.195Z,101132.59
2022-11-13T03:15:01.875Z,101132.25
2022-11-13T03:17:31.726Z,101130.00
2022-11-13T03:19:58.545Z,101132.03
2022-11-13T03:22:25.312Z,101126.34
2022-11-13T03:24:51.878Z,101131.88
2022-11-13T03:27:18.921Z,101122.09
2022-11-13T03:29:45.520Z,101124.75
2022-11-13T03:32:12.032Z,101120.25
2022-11-13T03:34:39.224Z,101127.78
2022-11-13T03:37:05.730Z,101133.47
2022-11-13T03:39:32.176Z,101127.16
2022-11-13T03:41:58.669Z,101116.31
2022-11-13T03:44:25.150Z,101109.59
2022-11-13T03:46:51.599Z,101103.44
2022-11-13T03:49:18.395Z,101103.63
2022-11-13T03:51:44.868Z,101100.94
2022-11-13T03:54:11.336Z,101107.63
2022-11-13T03:56:37.801Z,101104.56
2022-11-13T03:59:04.337Z,101105.75
2022-11-13T04:01:30.791Z,101107.75
2022-11-13T04:03:57.320Z,101107.56
2022-11-13T04:06:23.899Z,101105.50
2022-11-13T04:08:50.386Z,101107.72
2022-11-13T04:11:16.869Z,101096.91
2022-11-13T04:13:43.344Z,101098.31
2022-11-13T04:16:09.814Z,101098.94
2022-11-13T04:18:36.316Z,101095.81
2022-11-13T04:21:05.034Z,101097.47
2022-11-13T04:23:32.135Z,101088.50
2022-11-13T04:25:58.971Z,101100.28
2022-11-13T04:28:25.507Z,101092.91
2022-11-13T04:30:55.841Z,101097.34
2022-11-13T04:33:22.348Z,101098.16
2022-11-13T04:35:48.949Z,101091.41
2022-11-13T04:38:15.972Z,101083.47
2022-11-13T04:40:43.049Z,101081.19
2022-11-13T04:43:09.797Z,101085.25
2022-11-13T04:45:37.368Z,101084.00
2022-11-13T04:48:04.256Z,101077.47
2022-11-13T04:50:30.960Z,101067.69
2022-11-13T04:52:57.618Z,101064.38
2022-11-13T04:55:24.142Z,101066.81
2022-11-13T04:57:54.674Z,101062.72
2022-11-13T05:00:21.380Z,101053.50
2022-11-13T05:02:47.885Z,101055.16
2022-11-13T05:05:14.426Z,101052.06
2022-11-13T05:07:42.650Z,101054.25
2022-11-13T05:10:09.596Z,101048.78
2022-11-13T05:12:36.089Z,101046.47
2022-11-13T05:15:02.727Z,101052.59
2022-11-13T05:17:29.337Z,101045.22
2022-11-13T05:19:55.889Z,101049.47
2022-11-13T05:22:22.388Z,101050.09
2022-11-13T05:24:48.928Z,101047.22
2022-11-13T05:27:17.617Z,101051.25
2022-11-13T05:29:44.766Z,101038.59
2022-11-13T05:32:11.305Z,101043.88
2022-11-13T05:34:37.955Z,101050.59
2022-11-13T05:37:04.438Z,101052.22
2022-11-13T05:39:30.901Z,101056.03
2022-11-13T05:41:57.411Z,101054.44
2022-11-13T05:44:23.913Z,101062.16
2022-11-13T05:46:50.370Z,101050.53
2022-11-13T05:49:16.881Z,101051.34
2022-11-13T05:51:43.419Z,101052.97
2022-11-13T05:54:10.727Z,101046.63
2022-11-13T05:56:37.383Z,101051.72
2022-11-13T05:59:04.977Z,101057.59
2022-11-13T06:01:37.825Z,101053.94
2022-11-13T06:04:06.351Z,101062.69
2022-11-13T06:06:34.216Z,101053.47
2022-11-13T06:09:03.936Z,101050.59
2022-11-13T06:11:30.993Z,101043.66
2022-11-13T06:13:58.741Z,101040.56
2022-11-13T06:16:28.011Z,101032.84
2022-11-13T06:18:57.236Z,101037.72
2022-11-13T06:21:26.667Z,101033.44
2022-11-13T06:23:53.218Z,101044.63
2022-11-13T06:26:22.824Z,101035.63
2022-11-13T06:28:49.502Z,101031.94
2022-11-13T06:31:19.155Z,101019.75
2022-11-13T06:33:46.235Z,101024.59
2022-11-13T06:36:25.212Z,101025.63
2022-11-13T06:38:52.054Z,101024.59
2022-11-13T06:41:21.483Z,101021.16
2022-11-13T06:43:48.541Z,101028.06
2022-11-13T06:46:18.155Z,101031.31
2022-11-13T06:48:44.935Z,101026.00
2022-11-13T06:51:17.304Z,101027.63
2022-11-13T06:53:44.353Z,101031.88
2022-11-13T06:56:11.672Z,101028.41
2022-11-13T06:58:38.485Z,101031.88
2022-11-13T07:01:08.443Z,101025.78
2022-11-13T07:03:35.657Z,101031.06
2022-11-13T07:06:04.606Z,101027.63
2022-11-13T07:08:31.980Z,101034.53
2022-11-13T07:10:59.444Z,101029.00
2022-11-13T07:13:27.891Z,101029.84
2022-11-13T07:15:54.608Z,101024.53
2022-11-13T07:18:24.159Z,101031.44
2022-11-13T07:20:50.939Z,101030.41
2022-11-13T07:23:17.612Z,101035.47
2022-11-13T07:25:44.322Z,101041.00
2022-11-13T07:28:10.876Z,101037.31
2022-11-13T07:30:37.415Z,101036.50
2022-11-13T07:33:04.988Z,101041.38
2022-11-13T07:35:31.852Z,101037.91
2022-11-13T07:37:59.017Z,101048.28
2022-11-13T07:40:26.113Z,101031.56
2022-11-13T07:43:01.920Z,101042.19
2022-11-13T07:45:29.290Z,101043.78
2022-11-13T07:48:00.379Z,101042.78
2022-11-13T07:50:33.053Z,101043.59
2022-11-13T07:53:02.033Z,101047.28
2022-11-13T07:55:29.276Z,101055.81
2022-11-13T07:57:57.970Z,101057.66
2022-11-13T08:00:25.730Z,101069.88
2022-11-13T08:02:52.487Z,101061.72
2022-11-13T08:05:19.565Z,101058.81
2022-11-13T08:07:51.501Z,101064.94
2022-11-13T08:10:19.853Z,101065.75
2022-11-13T08:12:47.057Z,101049.81
2022-11-13T08:15:14.209Z,101036.34
2022-11-13T08:17:41.139Z,101054.69
2022-11-13T08:20:09.027Z,101054.44
2022-11-13T08:22:35.600Z,101058.75
2022-11-13T08:25:02.148Z,101061.16
2022-11-13T08:27:28.759Z,101054.63
2022-11-13T08:29:55.331Z,101048.25
2022-11-13T08:32:22.633Z,101050.91
2022-11-13T08:34:49.406Z,101043.53
2022-11-13T08:37:16.047Z,101038.81
2022-11-13T08:39:42.549Z,101042.03
2022-11-13T08:42:09.538Z,101036.75
2022-11-13T08:44:36.040Z,101029.38
2022-11-13T08:47:02.612Z,101024.66
2022-11-13T08:49:29.136Z,101026.28
2022-11-13T08:51:55.641Z,101020.75
2022-11-13T08:54:22.113Z,101020.53
2022-11-13T08:56:54.672Z,101018.69
2022-11-13T08:59:27.165Z,101021.91
2022-11-13T09:01:59.233Z,101027.00
2022-11-13T09:04:26.610Z,101018.81
2022-11-13T09:06:53.211Z,101018.00
2022-11-13T09:09:20.282Z,101006.09
2022-11-13T09:11:46.847Z,101013.84
2022-11-13T09:14:13.573Z,101015.47
2022-11-13T09:16:40.720Z,101023.56
2022-11-13T09:19:07.549Z,101030.50
2022-11-13T09:21:34.049Z,101026.56
2022-11-13T09:24:00.506Z,101023.69
2022-11-13T09:26:27.027Z,101026.91
2022-11-13T09:28:53.536Z,101023.81
2022-11-13T09:31:20.067Z,101024.63
2022-11-13T09:33:46.552Z,101020.72
2022-11-13T09:36:14.859Z,101021.28
2022-11-13T09:38:42.083Z,101020.28
2022-11-13T09:41:12.007Z,101015.97
2022-11-13T09:43:59.840Z,101006.50
2022-11-13T09:46:53.133Z,101004.47
2022-11-13T09:49:29.316Z,101008.28
2022-11-13T09:52:06.344Z,101006.19
2022-11-13T09:54:33.732Z,101006.19
2022-11-13T09:57:26.575Z,101005.72
2022-11-13T10:00:16.247Z,101008.97
2022-11-13T10:03:01.084Z,101009.53
2022-11-13T10:05:52.595Z,101002.16
2022-11-13T10:08:25.800Z,101007.03
2022-11-13T10:11:06.204Z,101007.63
2022-11-13T10:13:54.473Z,100998.59
2022-11-13T10:16:40.022Z,101001.84
2022-11-13T10:19:19.512Z,100999.19
2022-11-13T10:22:07.787Z,101003.22
2022-11-13T10:24:42.894Z,101007.28
2022-11-13T10:27:14.279Z,101005.78
2022-11-13T10:29:44.833Z,101007.97
2022-11-13T10:32:19.428Z,101012.00
2022-11-13T10:34:51.860Z,101008.09
2022-11-13T10:37:24.351Z,101010.50
2022-11-13T10:39:50.867Z,100999.06
2022-11-13T10:42:28.627Z,100996.41
2022-11-13T10:45:00.963Z,100998.63
2022-11-13T10:48:02.041Z,100996.75
2022-11-13T10:50:52.513Z,100986.50
2022-11-13T10:53:19.807Z,100987.06
2022-11-13T10:55:50.653Z,100981.53
2022-11-13T10:58:19.151Z,100982.91
2022-11-13T11:00:50.185Z,100981.88
2022-11-13T11:03:20.030Z,100972.63
2022-11-13T11:05:58.889Z,100968.69
2022-11-13T11:08:30.459Z,100973.53
2022-11-13T11:11:18.937Z,100973.88
2022-11-13T11:13:45.490Z,100962.78
2022-11-13T11:16:18.904Z,100968.91
2022-11-13T11:18:53.918Z,100965.19
2022-11-13T11:21:25.623Z,100968.44
2022-11-13T11:24:04.924Z,100955.38
2022-11-13T11:26:43.557Z,100953.66
2022-11-13T11:29:19.389Z,100951.53
2022-11-13T11:32:08.661Z,100940.19
2022-11-13T11:34:44.230Z,100944.25
2022-11-13T11:37:16.629Z,100933.38
2022-11-13T11:39:51.602Z,100927.03
2022-11-13T11:42:43.237Z,100927.84
2022-11-13T11:45:17.072Z,100924.94
2022-11-13T11:47:44.391Z,100914.63
2022-11-13T11:50:14.636Z,100897.63
2022-11-13T11:53:13.120Z,100903.28
2022-11-13T11:55:54.963Z,100895.63
2022-11-13T11:58:31.645Z,100908.94
2022-11-13T12:01:08.256Z,100914.59
2022-11-13T12:03:46.832Z,100918.06
2022-11-13T12:06:25.422Z,100911.47
2022-11-13T12:09:06.632Z,100909.59
2022-11-13T12:11:48.652Z,100898.16
2022-11-13T12:14:40.000Z,100890.53
2022-11-13T12:17:44.209Z,100884.69
2022-11-13T12:20:39.562Z,100875.13
2022-11-13T12:23:19.932Z,100877.84
2022-11-13T12:26:06.671Z,100883.50
2022-11-13T12:28:44.726Z,100883.63
2022-11-13T12:31:40.472Z,100874.34
2022-11-13T12:34:19.832Z,100876.06
2022-11-13T12:36:47.465Z,100876.38
2022-11-13T12:39:36.657Z,100868.72
2022-11-13T12:42:14.205Z,100862.91
2022-11-13T12:44:52.850Z,100855.75
2022-11-13T12:47:19.861Z,100861.63
2022-11-13T12:49:46.404Z,100855.03
2022-11-13T12:52:15.573Z,100855.38
2022-11-13T12:54:42.701Z,100845.84
2022-11-13T12:57:17.954Z,100827.56
2022-11-13T12:59:55.832Z,100825.75
2022-11-13T13:03:03.257Z,100820.19
2022-11-13T13:05:32.812Z,100819.16
2022-11-13T13:08:08.635Z,100819.69
2022-11-13T13:11:00.663Z,100821.31
2022-11-13T13:13:56.276Z,100817.09
2022-11-13T13:16:29.322Z,100807.03
2022-11-13T13:19:28.603Z,100809.69
2022-11-13T13:21:55.696Z,100802.25
2022-11-13T13:24:33.820Z,100803.09
2022-11-13T13:27:01.039Z,100802.81
2022-11-13T13:29:29.288Z,100794.84
2022-11-13T13:32:11.618Z,100799.69
2022-11-13T13:35:15.437Z,100786.59
2022-11-13T13:38:17.073Z,100782.06
2022-11-13T13:41:10.894Z,100772.00
2022-11-13T13:43:49.547Z,100770.94
2022-11-13T13:46:24.660Z,100786.69
2022-11-13T13:48:55.404Z,100770.44
2022-11-13T13:51:28.122Z,100764.88
2022-11-13T13:53:59.017Z,100765.69
2022-11-13T13:56:26.555Z,100759.84
2022-11-13T13:58:53.772Z,100757.19
2022-11-13T14:01:36.965Z,100756.16
2022-11-13T14:04:17.351Z,100754.31
2022-11-13T14:07:01.460Z,100764.44
2022-11-13T14:09:29.984Z,100767.09
2022-11-13T14:12:09.552Z,100758.31
2022-11-13T14:14:39.279Z,100751.63
2022-11-13T14:17:07.073Z,100756.44
2022-11-13T14:19:33.672Z,100755.66
2022-11-13T14:22:04.624Z,100751.38
2022-11-13T14:24:40.683Z,100747.13
2022-11-13T14:27:11.101Z,100741.78
2022-11-13T14:29:44.654Z,100739.66
2022-11-13T14:32:24.423Z,100738.88
2022-11-13T14:34:53.815Z,100736.19
2022-11-13T14:37:23.171Z,100739.44
2022-11-13T14:39:50.990Z,100732.47
2022-11-13T14:42:37.399Z,100732.72
2022-11-13T14:45:12.707Z,100729.28
2022-11-13T14:47:39.196Z,100734.59
2022-11-13T14:50:11.521Z,100729.53
2022-11-13T14:52:38.005Z,100735.41
2022-11-13T14:55:15.132Z,100719.69
2022-11-13T14:57:49.768Z,100717.81
2022-11-13T15:00:17.929Z,100720.72
2022-11-13T15:02:44.732Z,100721.53
2022-11-13T15:05:11.276Z,100725.25
2022-11-13T15:07:41.925Z,100722.56
2022-11-13T15:10:15.408Z,100715.38
2022-11-13T15:12:42.239Z,100716.44
2022-11-13T15:15:15.327Z,100714.03
2022-11-13T15:17:45.512Z,100714.03
2022-11-13T15:20:23.747Z,100701.78
2022-11-13T15:22:52.381Z,100699.13
2022-11-13T15:25:21.774Z,100686.84
2022-11-13T15:27:48.728Z,100686.03
2022-11-13T15:30:15.621Z,100688.16
2022-11-13T15:32:42.203Z,100690.56
2022-11-13T15:35:16.876Z,100688.97
2022-11-13T15:37:43.453Z,100684.44
2022-11-13T15:40:10.591Z,100682.84
2022-11-13T15:42:37.595Z,100677.50
2022-11-13T15:45:06.211Z,100671.38
2022-11-13T15:47:35.665Z,100674.06
2022-11-13T15:50:20.176Z,100678.81
2022-11-13T15:52:50.562Z,100682.75
2022-11-13T15:55:27.120Z,100691.53
2022-11-13T15:57:54.628Z,100687.28
2022-11-13T16:00:27.076Z,100687.53
2022-11-13T16:02:56.101Z,100678.97
2022-11-13T16:05:29.281Z,100678.19
2022-11-13T16:07:56.868Z,100671.25
2022-11-13T16:10:25.231Z,100668.03
2022-11-13T16:12:52.692Z,100663.53
2022-11-13T16:15:19.739Z,100667.47
2022-11-13T16:17:53.092Z,100678.13
2022-11-13T16:20:19.607Z,100688.19
2022-11-13T16:22:46.265Z,100683.72
2022-11-13T16:25:15.558Z,100678.63
2022-11-13T16:27:42.265Z,100666.91
2022-11-13T16:30:20.566Z,100663.69
2022-11-13T16:32:47.648Z,100666.38
2022-11-13T16:35:15.941Z,100660.47
2022-11-13T16:37:43.036Z,100661.03
2022-11-13T16:40:21.668Z,100656.78
2022-11-13T16:42:48.310Z,100654.13
2022-11-13T16:45:15.336Z,100655.13
2022-11-13T16:47:41.982Z,100646.34
2022-11-13T16:50:30.147Z,100639.69
2022-11-13T16:52:56.792Z,100639.44
2022-11-13T16:55:24.408Z,100638.38
2022-11-13T16:57:51.172Z,100642.91
2022-11-13T17:00:19.454Z,100641.28
2022-11-13T17:02:46.119Z,100644.75
2022-11-13T17:05:14.224Z,100640.50
2022-11-13T17:07:41.421Z,100636.78
2022-11-13T17:10:30.138Z,100631.44
2022-11-13T17:12:57.823Z,100632.19
2022-11-13T17:15:24.319Z,100645.00
2022-11-13T17:17:50.773Z,100642.84
2022-11-13T17:20:19.512Z,100634.84
2022-11-13T17:22:48.522Z,100642.03
2022-11-13T17:25:17.335Z,100634.28
2022-11-13T17:27:44.187Z,100639.59
2022-11-13T17:30:14.145Z,100634.28
2022-11-13T17:32:40.936Z,100630.81
2022-11-13T17:35:08.073Z,100633.75
2022-11-13T17:37:34.851Z,100624.16
2022-11-13T17:40:01.501Z,100614.31
2022-11-13T17:42:28.752Z,100617.78
2022-11-13T17:44:55.682Z,100611.66
2022-11-13T17:47:22.917Z,100615.34
2022-11-13T17:49:49.620Z,100609.22
2022-11-13T17:52:16.290Z,100593.25
2022-11-13T17:54:42.824Z,100598.56
2022-11-13T17:57:10.421Z,100590.06
2022-11-13T17:59:37.290Z,100583.94
2022-11-13T18:02:04.201Z,100585.53
2022-11-13T18:04:30.990Z,100585.53
2022-11-13T18:06:58.174Z,100586.59
2022-11-13T18:09:24.673Z,100579.41
2022-11-13T18:11:51.493Z,100581.25
2022-11-13T18:14:19.076Z,100584.94
2022-11-13T18:16:45.787Z,100594.56
2022-11-13T18:19:12.411Z,100596.38
2022-11-13T18:21:40.516Z,100586.59
2022-11-13T18:24:15.130Z,100578.00
2022-11-13T18:26:42.383Z,100571.63
2022-11-13T18:29:09.037Z,100563.63
2022-11-13T18:31:36.369Z,100558.56
2022-11-13T18:34:04.813Z,100565.50
2022-11-13T18:36:34.947Z,100564.44
2022-11-13T18:39:03.322Z,100565.50
2022-11-13T18:41:30.419Z,100562.84
2022-11-13T18:43:56.936Z,100560.19
2022-11-13T18:46:23.526Z,100549.00
2022-11-13T18:48:50.269Z,100557.50
2022-11-13T18:51:20.001Z,100554.84
2022-11-13T18:53:49.097Z,100559.13
2022-11-13T18:56:27.519Z,100562.84
2022-11-13T18:58:55.487Z,100555.66
2022-11-13T19:01:25.033Z,100552.00
2022-11-13T19:04:21.195Z,100552.00
2022-11-13T19:06:39.979Z,100536.03
2022-11-13T19:09:10.843Z,100537.81
2022-11-13T19:11:37.467Z,100533.38
2022-11-13T19:14:04.377Z,100534.16
2022-11-13T19:16:34.552Z,100538.69
2022-11-13T19:19:03.997Z,100520.53
2022-11-13T19:21:33.162Z,100525.56
2022-11-13T19:24:01.395Z,100529.84
2022-11-13T19:26:28.329Z,100526.38
2022-11-13T19:28:55.428Z,100518.41
2022-11-13T19:31:25.617Z,100511.22
2022-11-13T19:33:57.001Z,100512.88
2022-11-13T19:36:24.953Z,100509.41
2022-11-13T19:38:52.846Z,100495.25
2022-11-13T19:41:19.851Z,100497.72
2022-11-13T19:43:47.919Z,100502.22
2022-11-13T19:46:17.192Z,100487.25
2022-11-13T19:48:45.447Z,100489.72
2022-11-13T19:51:19.905Z,100492.13
2022-11-13T19:53:46.848Z,100490.53
2022-11-13T19:56:18.607Z,100489.72
2022-11-13T19:58:47.073Z,100487.25
2022-11-13T20:01:18.826Z,100476.88
2022-11-13T20:03:45.688Z,100472.69
2022-11-13T20:06:16.956Z,100475.34
2022-11-13T20:08:43.946Z,100465.50
2022-11-13T20:11:14.382Z,100464.97
2022-11-13T20:13:41.849Z,100472.97
2022-11-13T20:16:10.922Z,100463.13
2022-11-13T20:18:37.505Z,100455.13
2022-11-13T20:21:04.290Z,100460.19
2022-11-13T20:23:30.784Z,100456.72
2022-11-13T20:25:59.855Z,100452.47
2022-11-13T20:28:29.212Z,100451.41
2022-11-13T20:31:12.680Z,100444.22
2022-11-13T20:33:39.312Z,100449.53
2022-11-13T20:36:06.310Z,100443.41
2022-11-13T20:38:32.993Z,100440.53
2022-11-13T20:41:07.072Z,100430.91
2022-11-13T20:43:33.841Z,100431.47
2022-11-13T20:46:09.479Z,100428.25
2022-11-13T20:48:36.413Z,100429.06
2022-11-13T20:51:23.724Z,100425.34
2022-11-13T20:53:50.917Z,100424.28
2022-11-13T20:56:19.447Z,100421.63
2022-11-13T20:58:46.575Z,100417.13
2022-11-13T21:01:18.997Z,100412.84
2022-11-13T21:03:46.624Z,100413.66
2022-11-13T21:06:19.053Z,100415.25
2022-11-13T21:08:46.029Z,100408.34
2022-11-13T21:11:15.939Z,100399.53
2022-11-13T21:13:42.465Z,100403.00
2022-11-13T21:16:09.611Z,100406.47
2022-11-13T21:18:36.747Z,100407.25
2022-11-13T21:21:10.728Z,100410.50
2022-11-13T21:23:37.765Z,100404.38
2022-11-13T21:26:06.442Z,100390.50
2022-11-13T21:28:34.106Z,100389.69
2022-11-13T21:31:05.972Z,100380.66
2022-11-13T21:33:40.694Z,100386.78
2022-11-13T21:36:08.470Z,100376.94
2022-11-13T21:38:35.237Z,100375.09
2022-11-13T21:41:22.434Z,100373.22
2022-11-13T21:44:08.856Z,100376.13
2022-11-13T21:46:38.047Z,100371.38
2022-11-13T21:49:12.048Z,100379.59
2022-11-13T21:51:41.138Z,100371.06
2022-11-13T21:54:08.060Z,100373.47
2022-11-13T21:56:36.451Z,100372.44
2022-11-13T21:59:04.384Z,100369.78
2022-11-13T22:01:37.567Z,100367.13
2022-11-13T22:04:05.057Z,100366.03
2022-11-13T22:06:33.717Z,100360.72
2022-11-13T22:09:05.748Z,100350.84
2022-11-13T22:11:35.356Z,100356.47
2022-11-13T22:14:02.528Z,100354.84
2022-11-13T22:16:31.209Z,100351.16
2022-11-13T22:18:59.834Z,100355.09
2022-11-13T22:21:28.143Z,100345.81
2022-11-13T22:23:55.260Z,100342.34
2022-11-13T22:26:23.525Z,100329.84
2022-11-13T22:28:50.946Z,100317.59
2022-11-13T22:31:28.890Z,100324.75
2022-11-13T22:33:56.385Z,100319.22
2022-11-13T22:36:28.379Z,100311.97
2022-11-13T22:38:55.817Z,100308.50
2022-11-13T22:41:28.579Z,100298.91
2022-11-13T22:44:00.000Z,100294.16
2022-11-13T22:46:28.848Z,100299.50
2022-11-13T22:48:56.800Z,100287.47
2022-11-13T22:51:26.030Z,100284.22
2022-11-13T22:53:54.935Z,100273.28
2022-11-13T22:56:24.172Z,100275.41
2022-11-13T22:58:52.658Z,100274.84
2022-11-13T23:01:22.660Z,100277.53
2022-11-13T23:03:50.867Z,100278.28
2022-11-13T23:06:23.894Z,100271.88
2022-11-13T23:08:50.865Z,100273.22
2022-11-13T23:11:17.304Z,100279.56
2022-11-13T23:13:46.200Z,100269.47
2022-11-13T23:16:13.597Z,100264.63
2022-11-13T23:18:40.568Z,100267.81
2022-11-13T23:21:08.473Z,100265.63
2022-11-13T23:23:34.992Z,100257.94
2022-11-13T23:26:02.042Z,100258.44
2022-11-13T23:28:29.386Z,100252.81
2022-11-13T23:30:56.088Z,100252.28
2022-11-13T23:33:22.622Z,100259.47
2022-11-13T23:35:50.162Z,100248.53
2022-11-13T23:38:16.820Z,100253.84
2022-11-13T23:40:43.546Z,100254.88
2022-11-13T23:43:10.533Z,100251.41
2022-11-13T23:45:37.088Z,100241.59
2022-11-13T23:48:04.368Z,100246.09
2022-11-13T23:50:31.231Z,100243.22
2022-11-13T23:52:57.841Z,100241.59
2022-11-13T23:55:24.891Z,100238.91
2022-11-13T23:58:02.541Z,100239.97
